sensor_id;sensor_type;location;lat;lon;timestamp;temperature;humidity
5578;DHT22;2811;51.900;10.734;2023-11-21T00:00:13;9.10;99.90
5578;DHT22;2811;51.900;10.734;2023-11-21T00:02:41;9.10;99.90
5578;DHT22;2811;51.900;10.734;2023-11-21T00:05:07;9.10;99.90
5578;DHT22;2811;51.900;10.734;2023-11-21T00:07:36;9.10;99.90
5578;DHT22;2811;51.900;10.734;2023-11-21T00:10:03;9.10;99.90
5578;DHT22;2811;51.900;10.734;2023-11-21T00:12:31;9.10;99.90
5578;DHT22;2811;51.900;10.734;2023-11-21T00:14:59;9.20;99.90
5578;DHT22;2811;51.900;10.734;2023-11-21T00:17:25;9.20;99.90
5578;DHT22;2811;51.900;10.734;2023-11-21T00:19:52;9.10;99.90
5578;DHT22;2811;51.900;10.734;2023-11-21T00:22:19;9.30;99.90
5578;DHT22;2811;51.900;10.734;2023-11-21T00:24:47;9.20;99.90
5578;DHT22;2811;51.900;10.734;2023-11-21T00:27:14;9.40;99.90
5578;DHT22;2811;51.900;10.734;2023-11-21T00:29:41;9.70;99.90
5578;DHT22;2811;51.900;10.734;2023-11-21T00:32:07;9.50;99.90
5578;DHT22;2811;51.900;10.734;2023-11-21T00:34:34;9.50;99.90
5578;DHT22;2811;51.900;10.734;2023-11-21T00:37:01;9.40;99.90
5578;DHT22;2811;51.900;10.734;2023-11-21T00:39:28;9.40;99.90
5578;DHT22;2811;51.900;10.734;2023-11-21T00:41:56;9.30;99.90
5578;DHT22;2811;51.900;10.734;2023-11-21T00:44:23;9.30;99.90
5578;DHT22;2811;51.900;10.734;2023-11-21T00:46:50;9.30;99.90
5578;DHT22;2811;51.900;10.734;2023-11-21T00:49:17;9.40;99.90
5578;DHT22;2811;51.900;10.734;2023-11-21T00:51:43;9.30;99.90
5578;DHT22;2811;51.900;10.734;2023-11-21T00:54:10;9.30;99.90
5578;DHT22;2811;51.900;10.734;2023-11-21T00:56:37;9.40;99.90
5578;DHT22;2811;51.900;10.734;2023-11-21T00:59:06;9.30;99.90
5578;DHT22;2811;51.900;10.734;2023-11-21T01:01:33;9.30;99.90
5578;DHT22;2811;51.900;10.734;2023-11-21T01:04:00;9.30;99.90
5578;DHT22;2811;51.900;10.734;2023-11-21T01:06:27;9.30;99.90
5578;DHT22;2811;51.900;10.734;2023-11-21T01:08:53;9.20;99.90
5578;DHT22;2811;51.900;10.734;2023-11-21T01:11:21;9.20;99.90
5578;DHT22;2811;51.900;10.734;2023-11-21T01:13:47;9.20;99.90
5578;DHT22;2811;51.900;10.734;2023-11-21T01:16:16;9.30;99.90
5578;DHT22;2811;51.900;10.734;2023-11-21T01:18:42;9.30;99.90
5578;DHT22;2811;51.900;10.734;2023-11-21T01:21:09;9.40;99.90
5578;DHT22;2811;51.900;10.734;2023-11-21T01:23:36;9.30;99.90
5578;DHT22;2811;51.900;10.734;2023-11-21T01:26:03;9.50;99.90
5578;DHT22;2811;51.900;10.734;2023-11-21T01:28:30;9.40;99.90
5578;DHT22;2811;51.900;10.734;2023-11-21T01:30:56;9.50;99.90
5578;DHT22;2811;51.900;10.734;2023-11-21T01:33:24;9.50;99.90
5578;DHT22;2811;51.900;10.734;2023-11-21T01:35:51;9.50;99.90
5578;DHT22;2811;51.900;10.734;2023-11-21T01:38:20;9.50;99.90
5578;DHT22;2811;51.900;10.734;2023-11-21T01:40:47;9.40;99.90
5578;DHT22;2811;51.900;10.734;2023-11-21T01:43:14;9.40;99.90
5578;DHT22;2811;51.900;10.734;2023-11-21T01:45:42;9.30;99.90
5578;DHT22;2811;51.900;10.734;2023-11-21T01:48:10;9.30;99.90
5578;DHT22;2811;51.900;10.734;2023-11-21T01:50:39;9.30;99.90
5578;DHT22;2811;51.900;10.734;2023-11-21T01:53:06;9.40;99.90
5578;DHT22;2811;51.900;10.734;2023-11-21T01:55:33;9.40;99.90
5578;DHT22;2811;51.900;10.734;2023-11-21T01:58:00;9.40;99.90
5578;DHT22;2811;51.900;10.734;2023-11-21T02:00:27;9.40;99.90
5578;DHT22;2811;51.900;10.734;2023-11-21T02:02:54;9.50;99.90
5578;DHT22;2811;51.900;10.734;2023-11-21T02:05:22;9.50;99.90
5578;DHT22;2811;51.900;10.734;2023-11-21T02:07:50;9.50;99.90
5578;DHT22;2811;51.900;10.734;2023-11-21T02:10:18;9.40;99.90
5578;DHT22;2811;51.900;10.734;2023-11-21T02:12:48;9.50;99.90
5578;DHT22;2811;51.900;10.734;2023-11-21T02:15:16;9.50;99.90
5578;DHT22;2811;51.900;10.734;2023-11-21T02:17:45;9.60;99.90
5578;DHT22;2811;51.900;10.734;2023-11-21T02:20:13;9.50;99.90
5578;DHT22;2811;51.900;10.734;2023-11-21T02:22:41;9.50;99.90
5578;DHT22;2811;51.900;10.734;2023-11-21T02:25:10;9.60;99.90
5578;DHT22;2811;51.900;10.734;2023-11-21T02:27:36;9.60;99.90
5578;DHT22;2811;51.900;10.734;2023-11-21T02:30:04;9.60;99.90
5578;DHT22;2811;51.900;10.734;2023-11-21T02:32:33;9.70;99.90
5578;DHT22;2811;51.900;10.734;2023-11-21T02:35:00;9.70;99.90
5578;DHT22;2811;51.900;10.734;2023-11-21T02:37:33;9.80;99.90
5578;DHT22;2811;51.900;10.734;2023-11-21T02:40:00;9.70;99.90
5578;DHT22;2811;51.900;10.734;2023-11-21T02:42:30;9.90;99.90
5578;DHT22;2811;51.900;10.734;2023-11-21T02:44:57;9.70;99.90
5578;DHT22;2811;51.900;10.734;2023-11-21T02:47:24;9.70;99.90
5578;DHT22;2811;51.900;10.734;2023-11-21T02:49:50;9.70;99.90
5578;DHT22;2811;51.900;10.734;2023-11-21T02:52:18;9.60;99.90
5578;DHT22;2811;51.900;10.734;2023-11-21T02:54:45;9.70;99.90
5578;DHT22;2811;51.900;10.734;2023-11-21T02:57:11;9.70;99.90
5578;DHT22;2811;51.900;10.734;2023-11-21T02:59:40;9.80;99.90
5578;DHT22;2811;51.900;10.734;2023-11-21T03:02:07;10.00;99.90
5578;DHT22;2811;51.900;10.734;2023-11-21T03:04:34;9.80;99.90
5578;DHT22;2811;51.900;10.734;2023-11-21T03:07:01;9.70;99.90
5578;DHT22;2811;51.900;10.734;2023-11-21T03:09:28;9.60;99.90
5578;DHT22;2811;51.900;10.734;2023-11-21T03:11:54;9.60;99.90
5578;DHT22;2811;51.900;10.734;2023-11-21T03:14:21;9.60;99.90
5578;DHT22;2811;51.900;10.734;2023-11-21T03:16:49;9.50;99.90
5578;DHT22;2811;51.900;10.734;2023-11-21T03:19:16;9.50;99.90
5578;DHT22;2811;51.900;10.734;2023-11-21T03:21:43;9.60;99.90
5578;DHT22;2811;51.900;10.734;2023-11-21T03:24:10;9.60;99.90
5578;DHT22;2811;51.900;10.734;2023-11-21T03:26:36;9.50;99.90
5578;DHT22;2811;51.900;10.734;2023-11-21T03:29:03;9.60;99.90
5578;DHT22;2811;51.900;10.734;2023-11-21T03:31:31;9.60;99.90
5578;DHT22;2811;51.900;10.734;2023-11-21T03:33:59;9.50;99.90
5578;DHT22;2811;51.900;10.734;2023-11-21T03:36:26;9.50;99.90
5578;DHT22;2811;51.900;10.734;2023-11-21T03:38:52;9.50;99.90
5578;DHT22;2811;51.900;10.734;2023-11-21T03:41:20;9.60;99.90
5578;DHT22;2811;51.900;10.734;2023-11-21T03:43:47;9.60;99.90
5578;DHT22;2811;51.900;10.734;2023-11-21T03:46:13;9.60;99.90
5578;DHT22;2811;51.900;10.734;2023-11-21T03:48:40;9.60;99.90
5578;DHT22;2811;51.900;10.734;2023-11-21T03:51:08;9.90;99.90
5578;DHT22;2811;51.900;10.734;2023-11-21T03:53:35;10.10;99.90
5578;DHT22;2811;51.900;10.734;2023-11-21T03:56:02;9.90;99.90
5578;DHT22;2811;51.900;10.734;2023-11-21T03:58:29;9.80;99.90
5578;DHT22;2811;51.900;10.734;2023-11-21T04:00:56;9.70;99.90
5578;DHT22;2811;51.900;10.734;2023-11-21T04:03:23;9.90;99.90
5578;DHT22;2811;51.900;10.734;2023-11-21T04:05:50;9.80;99.90
5578;DHT22;2811;51.900;10.734;2023-11-21T04:08:18;9.80;99.90
5578;DHT22;2811;51.900;10.734;2023-11-21T04:10:44;9.70;99.90
5578;DHT22;2811;51.900;10.734;2023-11-21T04:13:11;9.50;99.90
5578;DHT22;2811;51.900;10.734;2023-11-21T04:15:38;9.50;99.90
5578;DHT22;2811;51.900;10.734;2023-11-21T04:18:05;9.40;99.90
5578;DHT22;2811;51.900;10.734;2023-11-21T04:20:32;9.60;99.90
5578;DHT22;2811;51.900;10.734;2023-11-21T04:22:58;9.60;99.90
5578;DHT22;2811;51.900;10.734;2023-11-21T04:25:26;9.40;99.90
5578;DHT22;2811;51.900;10.734;2023-11-21T04:27:53;9.50;99.90
5578;DHT22;2811;51.900;10.734;2023-11-21T04:30:20;9.60;99.90
5578;DHT22;2811;51.900;10.734;2023-11-21T04:32:47;9.60;99.90
5578;DHT22;2811;51.900;10.734;2023-11-21T04:35:14;9.60;99.90
5578;DHT22;2811;51.900;10.734;2023-11-21T04:37:40;9.60;99.90
5578;DHT22;2811;51.900;10.734;2023-11-21T04:40:08;9.60;99.90
5578;DHT22;2811;51.900;10.734;2023-11-21T04:42:37;9.50;99.90
5578;DHT22;2811;51.900;10.734;2023-11-21T04:45:04;9.50;99.90
5578;DHT22;2811;51.900;10.734;2023-11-21T04:47:34;9.50;99.90
5578;DHT22;2811;51.900;10.734;2023-11-21T04:50:01;9.40;99.90
5578;DHT22;2811;51.900;10.734;2023-11-21T04:52:28;9.50;99.90
5578;DHT22;2811;51.900;10.734;2023-11-21T04:54:55;9.50;99.90
5578;DHT22;2811;51.900;10.734;2023-11-21T04:57:23;9.70;99.90
5578;DHT22;2811;51.900;10.734;2023-11-21T04:59:51;9.60;99.90
5578;DHT22;2811;51.900;10.734;2023-11-21T05:02:18;9.50;99.90
5578;DHT22;2811;51.900;10.734;2023-11-21T05:04:46;9.50;99.90
5578;DHT22;2811;51.900;10.734;2023-11-21T05:07:13;9.50;99.90
5578;DHT22;2811;51.900;10.734;2023-11-21T05:09:42;9.60;99.90
5578;DHT22;2811;51.900;10.734;2023-11-21T05:12:09;9.50;99.90
5578;DHT22;2811;51.900;10.734;2023-11-21T05:14:37;9.40;99.90
5578;DHT22;2811;51.900;10.734;2023-11-21T05:17:05;9.60;99.90
5578;DHT22;2811;51.900;10.734;2023-11-21T05:19:33;9.80;99.90
5578;DHT22;2811;51.900;10.734;2023-11-21T05:22:01;9.60;99.90
5578;DHT22;2811;51.900;10.734;2023-11-21T05:24:28;9.60;99.90
5578;DHT22;2811;51.900;10.734;2023-11-21T05:26:55;9.70;99.90
5578;DHT22;2811;51.900;10.734;2023-11-21T05:29:22;9.70;99.90
5578;DHT22;2811;51.900;10.734;2023-11-21T05:31:49;9.60;99.90
5578;DHT22;2811;51.900;10.734;2023-11-21T05:34:17;9.70;99.90
5578;DHT22;2811;51.900;10.734;2023-11-21T05:36:44;9.60;99.90
5578;DHT22;2811;51.900;10.734;2023-11-21T05:39:12;9.50;99.90
5578;DHT22;2811;51.900;10.734;2023-11-21T05:41:39;9.40;99.90
5578;DHT22;2811;51.900;10.734;2023-11-21T05:44:06;9.40;99.90
5578;DHT22;2811;51.900;10.734;2023-11-21T05:46:33;9.40;99.90
5578;DHT22;2811;51.900;10.734;2023-11-21T05:49:00;9.30;99.90
5578;DHT22;2811;51.900;10.734;2023-11-21T05:51:28;9.30;99.90
5578;DHT22;2811;51.900;10.734;2023-11-21T05:53:54;9.40;99.90
5578;DHT22;2811;51.900;10.734;2023-11-21T05:56:21;9.40;99.90
5578;DHT22;2811;51.900;10.734;2023-11-21T05:58:48;9.40;99.90
5578;DHT22;2811;51.900;10.734;2023-11-21T06:01:15;9.30;99.90
5578;DHT22;2811;51.900;10.734;2023-11-21T06:03:42;9.30;99.90
5578;DHT22;2811;51.900;10.734;2023-11-21T06:06:09;9.30;99.90
5578;DHT22;2811;51.900;10.734;2023-11-21T06:08:37;9.20;99.90
5578;DHT22;2811;51.900;10.734;2023-11-21T06:11:04;9.20;99.90
5578;DHT22;2811;51.900;10.734;2023-11-21T06:13:31;9.20;99.90
5578;DHT22;2811;51.900;10.734;2023-11-21T06:15:58;9.30;99.90
5578;DHT22;2811;51.900;10.734;2023-11-21T06:18:25;9.40;99.90
5578;DHT22;2811;51.900;10.734;2023-11-21T06:20:52;9.30;99.90
5578;DHT22;2811;51.900;10.734;2023-11-21T06:23:19;9.20;99.90
5578;DHT22;2811;51.900;10.734;2023-11-21T06:25:47;9.20;99.90
5578;DHT22;2811;51.900;10.734;2023-11-21T06:28:14;9.20;99.90
5578;DHT22;2811;51.900;10.734;2023-11-21T06:30:43;9.30;99.90
5578;DHT22;2811;51.900;10.734;2023-11-21T06:33:10;9.20;99.90
5578;DHT22;2811;51.900;10.734;2023-11-21T06:35:37;9.20;99.90
5578;DHT22;2811;51.900;10.734;2023-11-21T06:38:05;9.20;99.90
5578;DHT22;2811;51.900;10.734;2023-11-21T06:40:32;9.10;99.90
5578;DHT22;2811;51.900;10.734;2023-11-21T06:43:00;9.10;99.90
5578;DHT22;2811;51.900;10.734;2023-11-21T06:45:27;9.10;99.90
5578;DHT22;2811;51.900;10.734;2023-11-21T06:47:54;9.10;99.90
5578;DHT22;2811;51.900;10.734;2023-11-21T06:50:20;9.30;99.90
5578;DHT22;2811;51.900;10.734;2023-11-21T06:52:47;9.30;99.90
5578;DHT22;2811;51.900;10.734;2023-11-21T06:55:15;9.30;99.90
5578;DHT22;2811;51.900;10.734;2023-11-21T06:57:42;9.30;99.90
5578;DHT22;2811;51.900;10.734;2023-11-21T07:00:12;9.30;99.90
5578;DHT22;2811;51.900;10.734;2023-11-21T07:02:40;9.30;99.90
5578;DHT22;2811;51.900;10.734;2023-11-21T07:05:07;9.60;99.90
5578;DHT22;2811;51.900;10.734;2023-11-21T07:07:34;9.40;99.90
5578;DHT22;2811;51.900;10.734;2023-11-21T07:10:03;9.40;99.90
5578;DHT22;2811;51.900;10.734;2023-11-21T07:12:29;9.20;99.90
5578;DHT22;2811;51.900;10.734;2023-11-21T07:14:56;9.20;99.90
5578;DHT22;2811;51.900;10.734;2023-11-21T07:17:24;9.30;99.90
5578;DHT22;2811;51.900;10.734;2023-11-21T07:19:51;9.30;99.90
5578;DHT22;2811;51.900;10.734;2023-11-21T07:22:18;9.40;99.90
5578;DHT22;2811;51.900;10.734;2023-11-21T07:24:48;9.50;99.90
5578;DHT22;2811;51.900;10.734;2023-11-21T07:27:16;9.50;99.90
5578;DHT22;2811;51.900;10.734;2023-11-21T07:29:43;9.50;99.90
5578;DHT22;2811;51.900;10.734;2023-11-21T07:32:09;9.40;99.90
5578;DHT22;2811;51.900;10.734;2023-11-21T07:34:37;9.40;99.90
5578;DHT22;2811;51.900;10.734;2023-11-21T07:37:04;9.40;99.90
5578;DHT22;2811;51.900;10.734;2023-11-21T07:39:31;9.40;99.90
5578;DHT22;2811;51.900;10.734;2023-11-21T07:41:58;9.50;99.90
5578;DHT22;2811;51.900;10.734;2023-11-21T07:44:24;9.50;99.90
5578;DHT22;2811;51.900;10.734;2023-11-21T07:46:51;9.40;99.90
5578;DHT22;2811;51.900;10.734;2023-11-21T07:49:22;9.70;99.90
5578;DHT22;2811;51.900;10.734;2023-11-21T07:51:50;9.30;99.90
5578;DHT22;2811;51.900;10.734;2023-11-21T07:54:18;9.30;99.90
5578;DHT22;2811;51.900;10.734;2023-11-21T07:56:44;9.30;99.90
5578;DHT22;2811;51.900;10.734;2023-11-21T07:59:11;9.10;99.90
5578;DHT22;2811;51.900;10.734;2023-11-21T08:01:39;9.20;99.90
5578;DHT22;2811;51.900;10.734;2023-11-21T08:04:08;9.20;99.90
5578;DHT22;2811;51.900;10.734;2023-11-21T08:06:35;9.30;99.90
5578;DHT22;2811;51.900;10.734;2023-11-21T08:09:03;9.30;99.90
5578;DHT22;2811;51.900;10.734;2023-11-21T08:11:30;9.30;99.90
5578;DHT22;2811;51.900;10.734;2023-11-21T08:13:58;9.20;99.90
5578;DHT22;2811;51.900;10.734;2023-11-21T08:16:25;9.00;99.90
5578;DHT22;2811;51.900;10.734;2023-11-21T08:18:53;8.70;99.90
5578;DHT22;2811;51.900;10.734;2023-11-21T08:21:20;8.40;99.90
5578;DHT22;2811;51.900;10.734;2023-11-21T08:23:49;8.20;99.90
5578;DHT22;2811;51.900;10.734;2023-11-21T08:26:21;8.10;99.90
5578;DHT22;2811;51.900;10.734;2023-11-21T08:28:48;8.00;99.90
5578;DHT22;2811;51.900;10.734;2023-11-21T08:31:14;7.90;99.90
5578;DHT22;2811;51.900;10.734;2023-11-21T08:33:41;7.90;99.90
5578;DHT22;2811;51.900;10.734;2023-11-21T08:36:08;7.80;99.90
5578;DHT22;2811;51.900;10.734;2023-11-21T08:38:36;7.70;99.90
5578;DHT22;2811;51.900;10.734;2023-11-21T08:41:05;7.70;99.90
5578;DHT22;2811;51.900;10.734;2023-11-21T08:43:34;7.60;99.90
5578;DHT22;2811;51.900;10.734;2023-11-21T08:46:01;7.60;99.90
5578;DHT22;2811;51.900;10.734;2023-11-21T08:48:28;7.60;99.90
5578;DHT22;2811;51.900;10.734;2023-11-21T08:50:55;7.60;99.90
5578;DHT22;2811;51.900;10.734;2023-11-21T08:53:22;7.60;99.90
5578;DHT22;2811;51.900;10.734;2023-11-21T08:55:48;7.60;99.90
5578;DHT22;2811;51.900;10.734;2023-11-21T08:58:15;7.50;99.90
5578;DHT22;2811;51.900;10.734;2023-11-21T09:00:44;7.50;99.90
5578;DHT22;2811;51.900;10.734;2023-11-21T09:03:12;7.50;99.90
5578;DHT22;2811;51.900;10.734;2023-11-21T09:05:39;7.50;99.90
5578;DHT22;2811;51.900;10.734;2023-11-21T09:08:06;7.50;99.90
5578;DHT22;2811;51.900;10.734;2023-11-21T09:10:33;7.50;99.90
5578;DHT22;2811;51.900;10.734;2023-11-21T09:13:02;7.50;99.90
5578;DHT22;2811;51.900;10.734;2023-11-21T09:15:34;7.60;99.90
5578;DHT22;2811;51.900;10.734;2023-11-21T09:18:02;7.50;99.90
5578;DHT22;2811;51.900;10.734;2023-11-21T09:20:30;7.40;99.90
5578;DHT22;2811;51.900;10.734;2023-11-21T09:22:57;7.30;99.90
5578;DHT22;2811;51.900;10.734;2023-11-21T09:25:24;7.20;99.90
5578;DHT22;2811;51.900;10.734;2023-11-21T09:27:50;7.10;99.90
5578;DHT22;2811;51.900;10.734;2023-11-21T09:30:17;7.20;99.90
5578;DHT22;2811;51.900;10.734;2023-11-21T09:32:45;7.10;99.90
5578;DHT22;2811;51.900;10.734;2023-11-21T09:35:14;7.10;99.90
5578;DHT22;2811;51.900;10.734;2023-11-21T09:37:41;7.10;99.90
5578;DHT22;2811;51.900;10.734;2023-11-21T09:40:11;7.10;99.90
5578;DHT22;2811;51.900;10.734;2023-11-21T09:42:42;7.20;99.90
5578;DHT22;2811;51.900;10.734;2023-11-21T09:45:17;7.20;99.90
5578;DHT22;2811;51.900;10.734;2023-11-21T09:47:46;7.10;99.90
5578;DHT22;2811;51.900;10.734;2023-11-21T09:50:17;7.10;99.90
5578;DHT22;2811;51.900;10.734;2023-11-21T09:52:55;7.00;99.90
5578;DHT22;2811;51.900;10.734;2023-11-21T09:55:27;7.00;99.90
5578;DHT22;2811;51.900;10.734;2023-11-21T09:57:56;7.00;99.90
5578;DHT22;2811;51.900;10.734;2023-11-21T10:00:23;7.20;99.90
5578;DHT22;2811;51.900;10.734;2023-11-21T10:02:51;7.20;99.90
5578;DHT22;2811;51.900;10.734;2023-11-21T10:05:20;7.20;99.90
5578;DHT22;2811;51.900;10.734;2023-11-21T10:07:49;7.30;99.90
5578;DHT22;2811;51.900;10.734;2023-11-21T10:10:18;7.30;99.90
5578;DHT22;2811;51.900;10.734;2023-11-21T10:12:49;7.20;99.90
5578;DHT22;2811;51.900;10.734;2023-11-21T10:15:21;7.20;99.90
5578;DHT22;2811;51.900;10.734;2023-11-21T10:17:48;7.30;99.90
5578;DHT22;2811;51.900;10.734;2023-11-21T10:20:20;7.40;99.90
5578;DHT22;2811;51.900;10.734;2023-11-21T10:22:47;7.50;99.90
5578;DHT22;2811;51.900;10.734;2023-11-21T10:25:14;7.50;99.90
5578;DHT22;2811;51.900;10.734;2023-11-21T10:27:41;7.50;99.90
5578;DHT22;2811;51.900;10.734;2023-11-21T10:30:09;7.50;99.90
5578;DHT22;2811;51.900;10.734;2023-11-21T10:32:37;7.50;99.90
5578;DHT22;2811;51.900;10.734;2023-11-21T10:35:06;7.40;99.90
5578;DHT22;2811;51.900;10.734;2023-11-21T10:37:37;7.40;99.90
5578;DHT22;2811;51.900;10.734;2023-11-21T10:40:06;7.40;99.90
5578;DHT22;2811;51.900;10.734;2023-11-21T10:42:37;7.50;99.90
5578;DHT22;2811;51.900;10.734;2023-11-21T10:45:04;7.60;99.90
5578;DHT22;2811;51.900;10.734;2023-11-21T10:47:38;7.40;99.90
5578;DHT22;2811;51.900;10.734;2023-11-21T10:50:05;7.30;99.90
5578;DHT22;2811;51.900;10.734;2023-11-21T10:52:37;7.20;99.90
5578;DHT22;2811;51.900;10.734;2023-11-21T10:55:16;7.20;99.90
5578;DHT22;2811;51.900;10.734;2023-11-21T10:57:45;7.10;99.90
5578;DHT22;2811;51.900;10.734;2023-11-21T11:00:16;7.10;99.90
5578;DHT22;2811;51.900;10.734;2023-11-21T11:02:46;7.30;99.90
5578;DHT22;2811;51.900;10.734;2023-11-21T11:05:15;7.30;99.90
5578;DHT22;2811;51.900;10.734;2023-11-21T11:07:48;7.40;99.90
5578;DHT22;2811;51.900;10.734;2023-11-21T11:10:20;7.40;99.90
5578;DHT22;2811;51.900;10.734;2023-11-21T11:12:49;7.50;99.90
5578;DHT22;2811;51.900;10.734;2023-11-21T11:15:18;7.50;99.90
5578;DHT22;2811;51.900;10.734;2023-11-21T11:17:46;7.50;99.90
5578;DHT22;2811;51.900;10.734;2023-11-21T11:20:14;7.50;99.90
5578;DHT22;2811;51.900;10.734;2023-11-21T11:22:50;7.50;99.90
5578;DHT22;2811;51.900;10.734;2023-11-21T11:25:30;7.50;99.90
5578;DHT22;2811;51.900;10.734;2023-11-21T11:30:53;7.50;99.90
5578;DHT22;2811;51.900;10.734;2023-11-21T11:33:38;7.60;99.90
5578;DHT22;2811;51.900;10.734;2023-11-21T11:36:10;7.50;99.90
5578;DHT22;2811;51.900;10.734;2023-11-21T11:38:45;7.50;99.90
5578;DHT22;2811;51.900;10.734;2023-11-21T11:41:24;7.30;99.90
5578;DHT22;2811;51.900;10.734;2023-11-21T11:43:51;7.40;99.90
5578;DHT22;2811;51.900;10.734;2023-11-21T11:46:18;7.40;99.90
5578;DHT22;2811;51.900;10.734;2023-11-21T11:48:47;7.50;99.90
5578;DHT22;2811;51.900;10.734;2023-11-21T11:51:15;7.50;99.90
5578;DHT22;2811;51.900;10.734;2023-11-21T11:53:46;7.40;99.90
5578;DHT22;2811;51.900;10.734;2023-11-21T11:56:26;7.40;99.90
5578;DHT22;2811;51.900;10.734;2023-11-21T11:58:54;7.40;99.90
5578;DHT22;2811;51.900;10.734;2023-11-21T12:01:21;7.30;99.90
5578;DHT22;2811;51.900;10.734;2023-11-21T12:07:00;7.40;99.90
5578;DHT22;2811;51.900;10.734;2023-11-21T12:09:30;7.40;99.90
5578;DHT22;2811;51.900;10.734;2023-11-21T12:11:58;7.50;99.90
5578;DHT22;2811;51.900;10.734;2023-11-21T12:14:25;7.60;99.90
5578;DHT22;2811;51.900;10.734;2023-11-21T12:16:53;7.60;99.90
5578;DHT22;2811;51.900;10.734;2023-11-21T12:19:20;7.60;99.90
5578;DHT22;2811;51.900;10.734;2023-11-21T12:21:48;7.80;99.90
5578;DHT22;2811;51.900;10.734;2023-11-21T12:24:16;8.10;99.90
5578;DHT22;2811;51.900;10.734;2023-11-21T12:26:44;7.50;99.90
5578;DHT22;2811;51.900;10.734;2023-11-21T12:29:11;7.70;99.90
5578;DHT22;2811;51.900;10.734;2023-11-21T12:31:38;7.70;99.90
5578;DHT22;2811;51.900;10.734;2023-11-21T12:34:05;7.80;99.90
5578;DHT22;2811;51.900;10.734;2023-11-21T12:36:32;7.90;99.90
5578;DHT22;2811;51.900;10.734;2023-11-21T12:39:00;7.70;99.90
5578;DHT22;2811;51.900;10.734;2023-11-21T12:41:28;7.50;99.90
5578;DHT22;2811;51.900;10.734;2023-11-21T12:43:57;7.60;99.90
5578;DHT22;2811;51.900;10.734;2023-11-21T12:46:24;7.50;99.90
5578;DHT22;2811;51.900;10.734;2023-11-21T12:48:55;7.50;99.90
5578;DHT22;2811;51.900;10.734;2023-11-21T12:51:22;7.60;99.90
5578;DHT22;2811;51.900;10.734;2023-11-21T12:53:49;7.60;99.90
5578;DHT22;2811;51.900;10.734;2023-11-21T12:56:16;7.80;99.90
5578;DHT22;2811;51.900;10.734;2023-11-21T12:58:45;7.90;99.90
5578;DHT22;2811;51.900;10.734;2023-11-21T13:01:14;7.80;99.90
5578;DHT22;2811;51.900;10.734;2023-11-21T13:03:46;7.90;99.90
5578;DHT22;2811;51.900;10.734;2023-11-21T13:06:14;7.90;99.90
5578;DHT22;2811;51.900;10.734;2023-11-21T13:08:41;8.00;99.90
5578;DHT22;2811;51.900;10.734;2023-11-21T13:11:12;7.80;99.90
5578;DHT22;2811;51.900;10.734;2023-11-21T13:13:41;7.90;99.90
5578;DHT22;2811;51.900;10.734;2023-11-21T13:16:09;8.00;99.90
5578;DHT22;2811;51.900;10.734;2023-11-21T13:18:37;8.20;99.90
5578;DHT22;2811;51.900;10.734;2023-11-21T13:21:06;7.90;99.90
5578;DHT22;2811;51.900;10.734;2023-11-21T13:23:38;7.80;99.90
5578;DHT22;2811;51.900;10.734;2023-11-21T13:26:06;7.80;99.90
5578;DHT22;2811;51.900;10.734;2023-11-21T13:28:34;7.70;99.90
5578;DHT22;2811;51.900;10.734;2023-11-21T13:31:03;7.70;99.90
5578;DHT22;2811;51.900;10.734;2023-11-21T13:33:36;7.60;99.90
5578;DHT22;2811;51.900;10.734;2023-11-21T13:36:05;7.70;99.90
5578;DHT22;2811;51.900;10.734;2023-11-21T13:38:33;7.60;99.90
5578;DHT22;2811;51.900;10.734;2023-11-21T13:41:01;7.60;99.90
5578;DHT22;2811;51.900;10.734;2023-11-21T13:43:28;7.60;99.90
5578;DHT22;2811;51.900;10.734;2023-11-21T13:45:56;7.90;99.90
5578;DHT22;2811;51.900;10.734;2023-11-21T13:48:27;7.90;99.90
5578;DHT22;2811;51.900;10.734;2023-11-21T13:51:04;7.80;99.90
5578;DHT22;2811;51.900;10.734;2023-11-21T13:53:38;7.70;99.90
5578;DHT22;2811;51.900;10.734;2023-11-21T13:56:07;7.50;99.90
5578;DHT22;2811;51.900;10.734;2023-11-21T13:58:34;7.60;99.90
5578;DHT22;2811;51.900;10.734;2023-11-21T14:01:10;7.50;99.90
5578;DHT22;2811;51.900;10.734;2023-11-21T14:03:50;7.40;99.90
5578;DHT22;2811;51.900;10.734;2023-11-21T14:06:24;7.20;99.90
5578;DHT22;2811;51.900;10.734;2023-11-21T14:08:59;7.30;99.90
5578;DHT22;2811;51.900;10.734;2023-11-21T14:11:30;7.30;99.90
5578;DHT22;2811;51.900;10.734;2023-11-21T14:13:57;7.30;99.90
5578;DHT22;2811;51.900;10.734;2023-11-21T14:16:24;7.20;99.90
5578;DHT22;2811;51.900;10.734;2023-11-21T14:18:51;7.20;99.90
5578;DHT22;2811;51.900;10.734;2023-11-21T14:21:25;7.20;99.90
5578;DHT22;2811;51.900;10.734;2023-11-21T14:23:52;7.20;99.90
5578;DHT22;2811;51.900;10.734;2023-11-21T14:26:20;7.20;99.90
5578;DHT22;2811;51.900;10.734;2023-11-21T14:28:50;7.20;99.90
5578;DHT22;2811;51.900;10.734;2023-11-21T14:31:18;7.30;99.90
5578;DHT22;2811;51.900;10.734;2023-11-21T14:33:46;7.20;99.90
5578;DHT22;2811;51.900;10.734;2023-11-21T14:36:12;7.20;99.90
5578;DHT22;2811;51.900;10.734;2023-11-21T14:38:42;7.20;99.90
5578;DHT22;2811;51.900;10.734;2023-11-21T14:41:10;7.20;99.90
5578;DHT22;2811;51.900;10.734;2023-11-21T14:43:39;7.20;99.90
5578;DHT22;2811;51.900;10.734;2023-11-21T14:46:07;7.20;99.90
5578;DHT22;2811;51.900;10.734;2023-11-21T14:48:39;7.20;99.90
5578;DHT22;2811;51.900;10.734;2023-11-21T14:51:08;7.10;99.90
5578;DHT22;2811;51.900;10.734;2023-11-21T14:53:54;7.30;99.90
5578;DHT22;2811;51.900;10.734;2023-11-21T14:56:20;7.20;99.90
5578;DHT22;2811;51.900;10.734;2023-11-21T14:58:52;7.30;99.90
5578;DHT22;2811;51.900;10.734;2023-11-21T15:01:19;7.10;99.90
5578;DHT22;2811;51.900;10.734;2023-11-21T15:03:56;7.10;99.90
5578;DHT22;2811;51.900;10.734;2023-11-21T15:06:23;6.90;99.90
5578;DHT22;2811;51.900;10.734;2023-11-21T15:08:54;6.80;99.90
5578;DHT22;2811;51.900;10.734;2023-11-21T15:11:43;6.80;99.90
5578;DHT22;2811;51.900;10.734;2023-11-21T15:14:09;6.80;99.90
5578;DHT22;2811;51.900;10.734;2023-11-21T15:16:38;6.80;99.90
5578;DHT22;2811;51.900;10.734;2023-11-21T15:19:08;6.70;99.90
5578;DHT22;2811;51.900;10.734;2023-11-21T15:21:35;6.80;99.90
5578;DHT22;2811;51.900;10.734;2023-11-21T15:24:04;6.80;99.90
5578;DHT22;2811;51.900;10.734;2023-11-21T15:26:32;6.90;99.90
5578;DHT22;2811;51.900;10.734;2023-11-21T15:28:58;7.10;99.90
5578;DHT22;2811;51.900;10.734;2023-11-21T15:31:26;7.10;99.90
5578;DHT22;2811;51.900;10.734;2023-11-21T15:33:52;7.00;99.90
5578;DHT22;2811;51.900;10.734;2023-11-21T15:36:19;6.70;99.90
5578;DHT22;2811;51.900;10.734;2023-11-21T15:38:46;6.50;99.90
5578;DHT22;2811;51.900;10.734;2023-11-21T15:41:14;6.60;99.90
5578;DHT22;2811;51.900;10.734;2023-11-21T15:43:41;6.40;99.90
5578;DHT22;2811;51.900;10.734;2023-11-21T15:46:08;6.30;99.90
5578;DHT22;2811;51.900;10.734;2023-11-21T15:48:35;6.40;99.90
5578;DHT22;2811;51.900;10.734;2023-11-21T15:51:04;6.40;99.90
5578;DHT22;2811;51.900;10.734;2023-11-21T15:53:31;6.30;99.90
5578;DHT22;2811;51.900;10.734;2023-11-21T15:55:58;6.20;99.90
5578;DHT22;2811;51.900;10.734;2023-11-21T15:58:25;6.10;99.90
5578;DHT22;2811;51.900;10.734;2023-11-21T16:00:52;6.10;99.90
5578;DHT22;2811;51.900;10.734;2023-11-21T16:03:19;6.10;99.90
5578;DHT22;2811;51.900;10.734;2023-11-21T16:05:47;6.10;99.90
5578;DHT22;2811;51.900;10.734;2023-11-21T16:08:14;6.20;99.90
5578;DHT22;2811;51.900;10.734;2023-11-21T16:10:42;6.50;99.90
5578;DHT22;2811;51.900;10.734;2023-11-21T16:13:09;6.20;99.90